createdAt,value
2024-01-18T00:00:53.932Z,19.60
2024-01-18T00:03:41.857Z,16.80
2024-01-18T00:06:09.847Z,13.70
2024-01-18T00:08:37.656Z,16.00
2024-01-18T00:11:05.316Z,13.80
2024-01-18T00:13:32.936Z,14.40
2024-01-18T00:16:00.622Z,17.40
2024-01-18T00:18:28.534Z,15.00
2024-01-18T00:20:56.308Z,18.10
2024-01-18T00:23:23.949Z,19.60
2024-01-18T00:25:51.768Z,19.00
2024-01-18T00:28:20.673Z,21.30
2024-01-18T00:30:48.338Z,21.00
2024-01-18T00:33:16.041Z,20.70
2024-01-18T00:35:43.814Z,23.90
2024-01-18T00:38:11.481Z,20.80
2024-01-18T00:40:39.113Z,19.70
2024-01-18T00:43:06.745Z,21.40
2024-01-18T00:45:34.525Z,21.10
2024-01-18T00:48:02.395Z,15.50
2024-01-18T00:50:30.122Z,21.00
2024-01-18T00:52:57.750Z,23.40
2024-01-18T00:55:25.373Z,20.80
2024-01-18T00:57:53.083Z,17.70
2024-01-18T01:00:20.962Z,15.80
2024-01-18T01:02:48.668Z,16.30
2024-01-18T01:05:16.367Z,16.90
2024-01-18T01:07:44.080Z,14.70
2024-01-18T01:10:11.781Z,12.20
2024-01-18T01:12:39.447Z,8.40
2024-01-18T01:15:07.812Z,10.40
2024-01-18T01:17:35.523Z,8.90
2024-01-18T01:20:06.006Z,5.90
2024-01-18T01:22:34.175Z,10.70
2024-01-18T01:25:01.832Z,8.70
2024-01-18T01:27:29.638Z,9.00
2024-01-18T01:29:57.410Z,9.80
2024-01-18T01:32:25.116Z,7.60
2024-01-18T01:34:52.847Z,7.90
2024-01-18T01:37:20.690Z,9.00
2024-01-18T01:39:48.313Z,7.90
2024-01-18T01:42:16.127Z,9.50
2024-01-18T01:44:43.798Z,8.30
2024-01-18T01:47:11.437Z,7.20
2024-01-18T01:49:39.348Z,5.80
2024-01-18T01:52:07.129Z,7.60
2024-01-18T01:54:34.953Z,7.40
2024-01-18T01:57:04.292Z,7.20
2024-01-18T01:59:33.251Z,6.90
2024-01-18T02:02:01.801Z,7.20
2024-01-18T02:04:30.722Z,5.90
2024-01-18T02:06:59.687Z,6.70
2024-01-18T02:09:27.718Z,6.40
2024-01-18T02:11:55.504Z,6.70
2024-01-18T02:14:24.104Z,6.50
2024-01-18T02:16:52.119Z,5.80
2024-01-18T02:19:19.840Z,6.30
2024-01-18T02:21:47.544Z,5.40
2024-01-18T02:24:21.530Z,7.30
2024-01-18T02:26:49.224Z,6.40
2024-01-18T02:29:16.853Z,5.50
2024-01-18T02:31:44.509Z,5.20
2024-01-18T02:34:16.911Z,5.40
2024-01-18T02:36:45.658Z,6.80
2024-01-18T02:39:13.666Z,5.70
2024-01-18T02:41:41.511Z,5.80
2024-01-18T02:44:09.399Z,5.80
2024-01-18T02:46:37.181Z,8.40
2024-01-18T02:49:04.877Z,7.40
2024-01-18T02:51:33.340Z,7.00
2024-01-18T02:54:01.091Z,7.10
2024-01-18T02:56:28.770Z,7.60
2024-01-18T02:58:56.422Z,6.20
2024-01-18T03:01:24.070Z,5.90
2024-01-18T03:03:51.839Z,7.20
2024-01-18T03:06:19.581Z,5.50
2024-01-18T03:08:47.225Z,7.10
2024-01-18T03:11:14.863Z,7.80
2024-01-18T03:13:42.800Z,8.20
2024-01-18T03:16:10.450Z,7.00
2024-01-18T03:18:38.394Z,8.20
2024-01-18T03:21:06.913Z,7.70
2024-01-18T03:23:34.689Z,7.40
2024-01-18T03:26:02.384Z,6.60
2024-01-18T03:28:30.066Z,7.10
2024-01-18T03:30:58.631Z,6.60
2024-01-18T03:33:26.386Z,6.60
2024-01-18T03:35:54.075Z,10.60
2024-01-18T03:38:21.711Z,7.70
2024-01-18T03:40:49.349Z,7.60
2024-01-18T03:43:17.065Z,6.70
2024-01-18T03:45:44.825Z,8.60
2024-01-18T03:48:12.614Z,7.30
2024-01-18T03:50:40.280Z,8.70
2024-01-18T03:53:07.920Z,9.30
2024-01-18T03:55:35.635Z,8.20
2024-01-18T03:58:03.630Z,8.50
2024-01-18T04:00:31.353Z,9.00
2024-01-18T04:02:59.147Z,10.00
2024-01-18T04:05:27.021Z,9.20
2024-01-18T04:07:54.647Z,10.70
2024-01-18T04:10:22.278Z,12.30
2024-01-18T04:12:50.355Z,11.00
2024-01-18T04:15:18.103Z,11.10
2024-01-18T04:17:45.845Z,13.00
2024-01-18T04:20:13.783Z,15.00
2024-01-18T04:22:41.529Z,11.60
2024-01-18T04:25:09.253Z,18.70
2024-01-18T04:27:37.100Z,17.10
2024-01-18T04:30:05.835Z,17.00
2024-01-18T04:32:33.525Z,15.60
2024-01-18T04:35:01.223Z,13.80
2024-01-18T04:37:28.886Z,12.50
2024-01-18T04:39:56.531Z,11.80
2024-01-18T04:42:24.244Z,12.30
2024-01-18T04:44:51.949Z,12.40
2024-01-18T04:47:19.613Z,10.20
2024-01-18T04:49:47.334Z,12.10
2024-01-18T04:52:14.996Z,17.70
2024-01-18T04:54:42.731Z,15.70
2024-01-18T04:57:10.495Z,14.60
2024-01-18T04:59:38.478Z,12.70
2024-01-18T05:02:06.130Z,13.70
2024-01-18T05:04:33.799Z,11.80
2024-01-18T05:07:01.555Z,12.30
2024-01-18T05:09:29.259Z,12.80
2024-01-18T05:11:56.964Z,13.10
2024-01-18T05:14:24.606Z,11.50
2024-01-18T05:16:52.505Z,13.80
2024-01-18T05:19:20.295Z,15.40
2024-01-18T05:21:48.281Z,14.00
2024-01-18T05:24:15.936Z,14.90
2024-01-18T05:26:43.747Z,17.40
2024-01-18T05:29:11.660Z,17.60
2024-01-18T05:31:39.342Z,19.60
2024-01-18T05:34:07.090Z,17.50
2024-01-18T05:36:34.873Z,21.80
2024-01-18T05:39:02.586Z,19.00
2024-01-18T05:41:30.261Z,16.50
2024-01-18T05:43:57.921Z,16.60
2024-01-18T05:46:25.552Z,17.30
2024-01-18T05:48:53.328Z,17.30
2024-01-18T05:51:21.027Z,20.20
2024-01-18T05:53:48.734Z,19.70
2024-01-18T05:56:16.394Z,21.50
2024-01-18T05:58:46.461Z,22.30
2024-01-18T06:01:14.720Z,20.80
2024-01-18T06:03:42.823Z,20.80
2024-01-18T06:06:11.440Z,20.70
2024-01-18T06:08:39.369Z,20.40
2024-01-18T06:11:08.449Z,18.40
2024-01-18T06:13:36.066Z,17.20
2024-01-18T06:16:03.840Z,18.70
2024-01-18T06:18:31.544Z,21.00
2024-01-18T06:20:59.201Z,17.30
2024-01-18T06:23:26.818Z,18.40
2024-01-18T06:25:54.458Z,17.50
2024-01-18T06:28:22.154Z,15.70
2024-01-18T06:30:49.863Z,14.80
2024-01-18T06:33:17.761Z,14.80
2024-01-18T06:35:45.462Z,14.30
2024-01-18T06:38:13.693Z,19.00
2024-01-18T06:40:43.483Z,17.00
2024-01-18T06:43:11.907Z,21.00
2024-01-18T06:45:39.559Z,19.70
2024-01-18T06:48:07.591Z,19.60
2024-01-18T06:50:35.944Z,19.90
2024-01-18T06:53:03.916Z,23.40
2024-01-18T06:55:31.603Z,28.00
2024-01-18T06:57:59.204Z,27.90
2024-01-18T07:00:26.914Z,25.80
2024-01-18T07:02:54.630Z,26.30
2024-01-18T07:05:22.364Z,26.30
2024-01-18T07:07:49.963Z,29.70
2024-01-18T07:10:17.837Z,25.60
2024-01-18T07:12:45.891Z,27.50
2024-01-18T07:15:14.161Z,22.50
2024-01-18T07:17:41.875Z,28.90
2024-01-18T07:20:09.772Z,22.90
2024-01-18T07:22:37.625Z,23.60
2024-01-18T07:25:05.740Z,15.50
2024-01-18T07:27:33.652Z,18.60
2024-01-18T07:30:01.506Z,13.60
2024-01-18T07:32:29.470Z,13.00
2024-01-18T07:34:57.203Z,13.90
2024-01-18T07:37:24.847Z,13.90
2024-01-18T07:39:52.529Z,14.30
2024-01-18T07:42:20.220Z,15.30
2024-01-18T07:44:47.833Z,15.10
2024-01-18T07:47:15.517Z,15.40
2024-01-18T07:49:44.809Z,15.80
2024-01-18T07:52:14.734Z,13.60
2024-01-18T07:54:42.561Z,15.30
2024-01-18T07:57:10.441Z,19.60
2024-01-18T07:59:38.225Z,14.50
2024-01-18T08:02:05.973Z,16.50
2024-01-18T08:04:33.840Z,15.90
2024-01-18T08:07:01.635Z,17.40
2024-01-18T08:09:29.708Z,18.20
2024-01-18T08:11:57.390Z,25.80
2024-01-18T08:14:25.028Z,16.70
2024-01-18T08:16:52.688Z,23.70
2024-01-18T08:19:20.407Z,21.30
2024-01-18T08:21:48.180Z,20.10
2024-01-18T08:24:15.854Z,18.70
2024-01-18T08:26:43.515Z,18.30
2024-01-18T08:29:11.293Z,18.30
2024-01-18T08:31:39.038Z,17.60
2024-01-18T08:34:06.769Z,21.40
2024-01-18T08:36:34.521Z,21.80
2024-01-18T08:39:02.173Z,19.30
2024-01-18T08:41:29.849Z,20.00
2024-01-18T08:43:57.510Z,16.20
2024-01-18T08:46:25.241Z,17.40
2024-01-18T08:48:53.388Z,23.10
2024-01-18T08:51:21.251Z,22.50
2024-01-18T08:53:48.970Z,29.50
2024-01-18T08:56:18.937Z,30.10
2024-01-18T08:58:48.150Z,25.20
2024-01-18T09:01:15.886Z,26.60
2024-01-18T09:03:43.681Z,29.50
2024-01-18T09:06:11.493Z,29.40
2024-01-18T09:08:39.246Z,35.80
2024-01-18T09:11:06.951Z,30.90
2024-01-18T09:13:34.633Z,31.50
2024-01-18T09:16:02.424Z,30.00
2024-01-18T09:18:30.245Z,31.50
2024-01-18T09:20:58.036Z,37.20
2024-01-18T09:23:25.656Z,29.00
2024-01-18T09:25:53.313Z,33.60
2024-01-18T09:28:20.977Z,27.40
2024-01-18T09:30:48.692Z,28.40
2024-01-18T09:33:16.471Z,20.50
2024-01-18T09:35:44.232Z,25.90
2024-01-18T09:38:12.376Z,29.60
2024-01-18T09:40:40.202Z,28.80
2024-01-18T09:43:09.419Z,27.50
2024-01-18T09:45:41.162Z,30.10
2024-01-18T09:48:09.341Z,31.10
2024-01-18T09:50:43.798Z,26.00
2024-01-18T09:53:12.665Z,29.50
2024-01-18T09:55:40.471Z,27.30
2024-01-18T09:58:12.983Z,29.70
2024-01-18T10:00:43.971Z,25.90
2024-01-18T10:03:12.056Z,26.90
2024-01-18T10:05:42.782Z,24.70
2024-01-18T10:08:10.785Z,29.00
2024-01-18T10:10:38.939Z,23.00
2024-01-18T10:13:07.036Z,23.60
2024-01-18T10:15:35.200Z,24.20
2024-01-18T10:18:06.718Z,23.40
2024-01-18T10:20:34.874Z,28.70
2024-01-18T10:23:04.244Z,25.50
2024-01-18T10:25:32.772Z,31.40
2024-01-18T10:28:00.511Z,32.90
2024-01-18T10:30:28.276Z,29.40
2024-01-18T10:32:55.980Z,25.30
2024-01-18T10:35:25.493Z,23.50
2024-01-18T10:38:04.655Z,21.00
2024-01-18T10:40:35.131Z,22.10
2024-01-18T10:43:03.787Z,15.90
2024-01-18T10:45:32.526Z,19.90
2024-01-18T10:48:00.835Z,17.30
2024-01-18T10:50:31.326Z,17.40
2024-01-18T10:55:26.620Z,12.90
2024-01-18T10:57:54.334Z,16.60
2024-01-18T11:00:22.035Z,16.40
2024-01-18T11:02:50.564Z,18.40
2024-01-18T11:05:19.617Z,15.20
2024-01-18T11:07:47.854Z,18.30
2024-01-18T11:10:15.576Z,21.90
2024-01-18T11:12:46.560Z,19.30
2024-01-18T11:15:15.506Z,17.20
2024-01-18T11:17:53.020Z,20.70
2024-01-18T11:20:20.878Z,21.70
2024-01-18T11:22:48.648Z,20.80
2024-01-18T11:25:23.081Z,21.60
2024-01-18T11:27:50.863Z,23.00
2024-01-18T11:30:37.541Z,25.00
2024-01-18T11:33:08.461Z,28.40
2024-01-18T11:35:36.971Z,25.30
2024-01-18T11:38:22.018Z,31.30
2024-01-18T11:41:14.064Z,31.50
2024-01-18T11:43:54.644Z,34.40
2024-01-18T11:46:38.528Z,27.20
2024-01-18T11:49:07.646Z,27.00
2024-01-18T11:51:36.432Z,29.20
2024-01-18T11:54:05.595Z,32.40
2024-01-18T11:56:36.775Z,30.10
2024-01-18T11:59:05.760Z,28.40
2024-01-18T12:01:33.957Z,28.00
2024-01-18T12:04:01.862Z,27.60
2024-01-18T12:06:30.298Z,27.30
2024-01-18T12:08:58.296Z,28.90
2024-01-18T12:11:26.471Z,25.40
2024-01-18T12:13:54.155Z,25.50
2024-01-18T12:16:23.095Z,27.90
2024-01-18T12:18:54.516Z,26.60
2024-01-18T12:21:23.479Z,25.00
2024-01-18T12:23:51.527Z,22.80
2024-01-18T12:26:19.265Z,24.40
2024-01-18T12:28:47.043Z,24.90
2024-01-18T12:31:14.847Z,25.20
2024-01-18T12:33:42.661Z,23.20
2024-01-18T12:36:10.845Z,29.00
2024-01-18T12:38:38.682Z,25.90
2024-01-18T12:41:06.525Z,25.40
2024-01-18T12:43:34.402Z,32.00
2024-01-18T12:46:02.336Z,29.50
2024-01-18T12:48:30.198Z,31.10
2024-01-18T12:50:58.009Z,33.40
2024-01-18T12:53:25.767Z,23.20
2024-01-18T12:55:53.443Z,29.10
2024-01-18T12:58:23.576Z,33.20
2024-01-18T13:00:51.471Z,29.40
2024-01-18T13:03:21.715Z,38.30
2024-01-18T13:05:49.875Z,35.40
2024-01-18T13:08:18.096Z,31.50
2024-01-18T13:10:47.114Z,34.50
2024-01-18T13:13:15.783Z,28.10
2024-01-18T13:15:45.039Z,38.40
2024-01-18T13:18:13.860Z,31.60
2024-01-18T13:20:44.941Z,35.80
2024-01-18T13:23:13.751Z,28.50
2024-01-18T13:25:41.489Z,31.80
2024-01-18T13:28:09.280Z,33.70
2024-01-18T13:30:37.079Z,32.20
2024-01-18T13:33:07.978Z,34.30
2024-01-18T13:35:37.614Z,30.90
2024-01-18T13:38:05.283Z,30.10
2024-01-18T13:40:32.993Z,31.50
2024-01-18T13:43:00.750Z,26.90
2024-01-18T13:45:28.427Z,33.40
2024-01-18T13:47:56.195Z,34.30
2024-01-18T13:50:23.818Z,35.80
2024-01-18T13:52:51.516Z,35.90
2024-01-18T13:55:19.236Z,40.30
2024-01-18T13:57:47.024Z,35.20
2024-01-18T14:00:15.285Z,41.50
2024-01-18T14:02:42.964Z,38.10
2024-01-18T14:05:10.791Z,40.90
2024-01-18T14:07:38.755Z,37.40
2024-01-18T14:10:06.958Z,33.70
2024-01-18T14:12:34.791Z,30.80
2024-01-18T14:15:02.524Z,33.00
2024-01-18T14:17:31.249Z,34.30
2024-01-18T14:20:00.362Z,25.10
2024-01-18T14:22:28.290Z,23.90
2024-01-18T14:24:56.023Z,30.60
2024-01-18T14:27:23.756Z,25.00
2024-01-18T14:29:51.465Z,25.90
2024-01-18T14:32:19.164Z,25.80
2024-01-18T14:34:46.955Z,24.50
2024-01-18T14:37:15.066Z,22.70
2024-01-18T14:39:42.781Z,20.70
2024-01-18T14:42:10.463Z,19.10
2024-01-18T14:44:38.555Z,22.10
2024-01-18T14:47:07.063Z,20.60
2024-01-18T14:49:34.890Z,20.60
2024-01-18T14:52:02.701Z,18.80
2024-01-18T14:54:30.365Z,22.10
2024-01-18T14:56:58.098Z,17.80
2024-01-18T14:59:25.784Z,21.60
2024-01-18T15:01:53.531Z,24.00
2024-01-18T15:04:21.319Z,19.20
2024-01-18T15:06:49.121Z,20.20
2024-01-18T15:09:16.856Z,20.40
2024-01-18T15:11:44.503Z,21.50
2024-01-18T15:14:12.335Z,19.70
2024-01-18T15:16:39.976Z,18.40
2024-01-18T15:19:14.292Z,21.90
2024-01-18T15:21:46.434Z,20.60
2024-01-18T15:24:15.522Z,18.70
2024-01-18T15:26:43.305Z,21.60
2024-01-18T15:29:11.075Z,22.70
2024-01-18T15:31:38.891Z,20.80
2024-01-18T15:34:06.971Z,20.10
2024-01-18T15:36:39.625Z,19.80
2024-01-18T15:39:07.535Z,24.90
2024-01-18T15:41:35.793Z,22.50
2024-01-18T15:44:03.516Z,21.10
2024-01-18T15:46:31.184Z,22.90
2024-01-18T15:48:59.235Z,26.30
2024-01-18T15:51:27.494Z,29.70
2024-01-18T15:53:55.204Z,31.60
2024-01-18T15:56:22.845Z,25.80
2024-01-18T15:58:50.485Z,23.90
2024-01-18T16:01:19.449Z,29.20
2024-01-18T16:03:47.286Z,28.90
2024-01-18T16:06:15.106Z,25.60
2024-01-18T16:08:42.851Z,24.90
2024-01-18T16:11:11.358Z,27.40
2024-01-18T16:13:39.141Z,26.80
2024-01-18T16:16:06.945Z,26.50
2024-01-18T16:18:35.012Z,21.70
2024-01-18T16:21:02.846Z,23.20
2024-01-18T16:23:30.476Z,28.50
2024-01-18T16:26:00.658Z,29.20
2024-01-18T16:28:28.295Z,29.60
2024-01-18T16:30:56.274Z,28.00
2024-01-18T16:33:23.959Z,30.70
2024-01-18T16:35:51.774Z,30.80
2024-01-18T16:38:19.485Z,33.80
2024-01-18T16:40:47.188Z,24.40
2024-01-18T16:43:14.801Z,29.10
2024-01-18T16:45:42.512Z,32.70
2024-01-18T16:48:10.342Z,29.60
2024-01-18T16:50:38.220Z,28.80
2024-01-18T16:53:05.912Z,25.80
2024-01-18T16:55:33.582Z,28.10
2024-01-18T16:58:01.340Z,28.90
2024-01-18T17:00:29.051Z,29.50
2024-01-18T17:02:56.726Z,27.80
2024-01-18T17:05:24.745Z,24.30
2024-01-18T17:07:52.436Z,31.10
2024-01-18T17:10:20.069Z,28.10
2024-01-18T17:12:47.699Z,29.50
2024-01-18T17:15:15.364Z,27.50
2024-01-18T17:17:43.035Z,25.60
2024-01-18T17:20:11.110Z,26.40
2024-01-18T17:22:38.888Z,24.50
2024-01-18T17:25:07.720Z,19.60
2024-01-18T17:27:36.419Z,30.10
2024-01-18T17:30:04.352Z,26.60
2024-01-18T17:32:32.059Z,25.70
2024-01-18T17:34:59.878Z,29.40
2024-01-18T17:37:27.536Z,25.10
2024-01-18T17:39:55.346Z,25.00
2024-01-18T17:42:23.001Z,20.20
2024-01-18T17:44:50.644Z,25.60
2024-01-18T17:47:20.535Z,25.70
2024-01-18T17:49:48.604Z,25.10
2024-01-18T17:52:16.383Z,25.80
2024-01-18T17:54:44.024Z,24.40
2024-01-18T17:57:11.727Z,20.90
2024-01-18T17:59:39.418Z,20.30
2024-01-18T18:02:07.213Z,20.60
2024-01-18T18:04:34.885Z,24.00
2024-01-18T18:07:02.502Z,20.50
2024-01-18T18:09:30.165Z,30.60
2024-01-18T18:11:57.806Z,20.50
2024-01-18T18:14:25.730Z,24.70
2024-01-18T18:16:53.978Z,26.50
2024-01-18T18:19:21.713Z,24.80
2024-01-18T18:21:49.465Z,24.30
2024-01-18T18:24:17.096Z,22.40
2024-01-18T18:26:44.782Z,25.00
2024-01-18T18:29:12.527Z,30.00
2024-01-18T18:31:40.275Z,30.10
2024-01-18T18:34:16.444Z,27.60
2024-01-18T18:36:51.194Z,31.60
2024-01-18T18:39:19.058Z,31.50
2024-01-18T18:41:46.855Z,30.60
2024-01-18T18:44:14.563Z,33.70
2024-01-18T18:46:42.219Z,35.40
2024-01-18T18:49:09.868Z,28.80
2024-01-18T18:51:37.685Z,31.20
2024-01-18T18:54:05.401Z,36.50
2024-01-18T18:56:33.093Z,24.20
2024-01-18T18:59:00.789Z,23.80
2024-01-18T19:01:29.851Z,32.70
2024-01-18T19:03:57.666Z,31.50
2024-01-18T19:06:25.326Z,42.20
2024-01-18T19:08:55.217Z,31.60
2024-01-18T19:11:25.306Z,28.10
2024-01-18T19:13:53.303Z,34.90
2024-01-18T19:16:20.915Z,27.70
2024-01-18T19:18:48.712Z,24.60
2024-01-18T19:21:16.402Z,27.30
2024-01-18T19:23:44.293Z,25.20
2024-01-18T19:26:13.240Z,24.00
2024-01-18T19:28:42.718Z,25.40
2024-01-18T19:31:10.381Z,20.90
2024-01-18T19:33:38.531Z,26.20
2024-01-18T19:36:06.560Z,21.80
2024-01-18T19:38:34.323Z,24.60
2024-01-18T19:41:01.963Z,21.60
2024-01-18T19:43:29.616Z,21.70
2024-01-18T19:45:57.312Z,21.00
2024-01-18T19:48:26.030Z,14.50
2024-01-18T19:50:54.300Z,15.20
2024-01-18T19:53:22.131Z,14.00
2024-01-18T19:55:49.769Z,13.40
2024-01-18T19:58:17.720Z,11.30
2024-01-18T20:00:45.392Z,18.20
2024-01-18T20:03:13.136Z,12.90
2024-01-18T20:05:41.069Z,19.40
2024-01-18T20:08:08.834Z,17.60
2024-01-18T20:10:36.751Z,16.60
2024-01-18T20:13:04.546Z,19.10
2024-01-18T20:15:32.249Z,17.40
2024-01-18T20:18:02.212Z,21.70
2024-01-18T20:20:30.067Z,22.80
2024-01-18T20:23:00.237Z,21.90
2024-01-18T20:25:28.072Z,20.90
2024-01-18T20:27:55.880Z,18.80
2024-01-18T20:30:23.789Z,23.60
2024-01-18T20:32:52.662Z,21.00
2024-01-18T20:35:20.418Z,22.10
2024-01-18T20:37:48.433Z,18.80
2024-01-18T20:40:16.260Z,24.30
2024-01-18T20:42:45.514Z,22.90
2024-01-18T20:45:13.202Z,25.00
2024-01-18T20:47:40.926Z,26.30
2024-01-18T20:50:08.963Z,20.60
2024-01-18T20:52:36.786Z,23.40
2024-01-18T20:55:04.818Z,27.50
2024-01-18T20:57:34.691Z,20.60
2024-01-18T21:00:02.350Z,20.70
2024-01-18T21:02:30.037Z,24.00
2024-01-18T21:04:57.751Z,23.90
2024-01-18T21:07:25.445Z,25.30
2024-01-18T21:09:53.124Z,24.80
2024-01-18T21:12:20.755Z,22.50
2024-01-18T21:14:48.534Z,25.10
2024-01-18T21:17:19.143Z,19.50
2024-01-18T21:19:46.817Z,26.50
2024-01-18T21:22:14.487Z,25.60
2024-01-18T21:24:42.200Z,24.10
2024-01-18T21:27:09.819Z,30.80
2024-01-18T21:29:37.709Z,28.70
2024-01-18T21:32:10.572Z,29.90
2024-01-18T21:34:38.489Z,36.20
2024-01-18T21:37:06.168Z,31.80
2024-01-18T21:39:33.926Z,32.20
2024-01-18T21:42:01.622Z,32.30
2024-01-18T21:44:29.354Z,30.90
2024-01-18T21:46:57.169Z,37.80
2024-01-18T21:49:24.945Z,34.30
2024-01-18T21:51:52.662Z,41.20
2024-01-18T21:54:20.306Z,29.50
2024-01-18T21:56:48.054Z,41.50
2024-01-18T21:59:21.820Z,37.00
2024-01-18T22:01:56.472Z,36.20
2024-01-18T22:04:24.270Z,32.50
2024-01-18T22:06:51.979Z,31.60
2024-01-18T22:09:27.472Z,32.10
2024-01-18T22:12:01.501Z,31.00
2024-01-18T22:14:29.154Z,24.40
2024-01-18T22:16:56.774Z,30.40
2024-01-18T22:19:39.387Z,36.50
2024-01-18T22:22:12.211Z,30.10
2024-01-18T22:24:39.887Z,25.20
2024-01-18T22:27:07.505Z,27.30
2024-01-18T22:29:35.164Z,26.10
2024-01-18T22:32:02.901Z,21.90
2024-01-18T22:34:30.588Z,22.60
2024-01-18T22:36:58.312Z,18.30
2024-01-18T22:39:27.212Z,18.30
2024-01-18T22:41:54.911Z,17.00
2024-01-18T22:44:22.599Z,18.80
2024-01-18T22:46:50.280Z,19.70
2024-01-18T22:49:18.098Z,22.10
2024-01-18T22:51:45.807Z,18.90
2024-01-18T22:54:13.403Z,19.20
2024-01-18T22:56:41.244Z,22.90
2024-01-18T22:59:09.219Z,16.90
2024-01-18T23:01:36.839Z,22.60
2024-01-18T23:04:04.673Z,16.00
2024-01-18T23:06:32.399Z,22.20
2024-01-18T23:09:00.829Z,28.60
2024-01-18T23:11:28.580Z,21.90
2024-01-18T23:13:56.222Z,22.50
2024-01-18T23:16:23.871Z,24.50
2024-01-18T23:18:51.552Z,21.10
2024-01-18T23:21:19.256Z,21.70
2024-01-18T23:23:46.954Z,22.30
2024-01-18T23:26:14.693Z,23.50
2024-01-18T23:28:42.333Z,22.20
2024-01-18T23:31:10.134Z,25.20
2024-01-18T23:33:38.011Z,18.10
2024-01-18T23:36:06.098Z,21.10
2024-01-18T23:38:33.741Z,21.30
2024-01-18T23:41:01.434Z,24.20
2024-01-18T23:43:29.052Z,24.20
2024-01-18T23:45:56.668Z,24.20
2024-01-18T23:48:24.334Z,22.40
2024-01-18T23:50:52.097Z,21.90
2024-01-18T23:53:19.875Z,21.70
2024-01-18T23:55:47.519Z,23.80
2024-01-18T23:58:15.144Z,20.80
